Time;durP1;ratioP1;P1;durP2;ratioP2;P2;SDS_P1;SDS_P2;PMS_P1;PMS_P2;Temp;Humidity;BMP_temperature;BMP_pressure;BME280_temperature;BME280_humidity;BME280_pressure;Samples;Min_cycle;Max_cycle;Signal;HPM_P1;HPM_P2
2022/08/09 00:02:32;;;;;;;5.27;4.07;;;16.80;99.90;;;;;;5011212;28;20234;-78
2022/08/09 00:05:17;;;;;;;6.27;4.00;;;16.70;99.90;;;;;;4990542;28;20187;-79
2022/08/09 00:08:02;;;;;;;5.80;3.60;;;16.70;99.90;;;;;;4992425;28;20266;-80
2022/08/09 00:10:46;;;;;;;4.30;3.80;;;16.70;99.90;;;;;;4993976;28;20211;-79
2022/08/09 00:13:31;;;;;;;4.83;3.90;;;16.70;99.90;;;;;;4994734;28;20227;-79
2022/08/09 00:16:16;;;;;;;5.07;4.07;;;16.70;99.90;;;;;;4990155;28;20200;-79
2022/08/09 00:19:00;;;;;;;6.27;3.93;;;16.70;99.90;;;;;;4990632;28;20242;-78
2022/08/09 00:21:45;;;;;;;4.90;4.20;;;16.60;99.90;;;;;;4984971;28;20196;-78
2022/08/09 00:24:30;;;;;;;5.70;4.03;;;16.60;99.90;;;;;;4991152;28;20231;-79
2022/08/09 00:27:15;;;;;;;7.40;4.10;;;16.60;99.90;;;;;;4991747;28;20268;-80
2022/08/09 00:29:59;;;;;;;8.47;4.10;;;16.60;99.90;;;;;;4989224;28;20223;-78
2022/08/09 00:32:43;;;;;;;4.93;3.87;;;16.50;99.90;;;;;;4989706;28;20216;-76
2022/08/09 00:35:28;;;;;;;6.10;3.80;;;16.50;99.90;;;;;;4991299;28;20255;-74
2022/08/09 00:38:12;;;;;;;4.83;3.67;;;16.50;99.90;;;;;;4987643;28;20184;-77
2022/08/09 00:41:00;;;;;;;4.93;3.70;;;16.50;99.90;;;;;;4994476;28;20219;-78
2022/08/09 00:43:45;;;;;;;7.33;4.30;;;16.40;99.90;;;;;;4993149;28;20259;-76
2022/08/09 00:46:29;;;;;;;6.10;3.70;;;16.40;99.90;;;;;;5008446;28;20200;-78
2022/08/09 00:49:13;;;;;;;7.63;3.90;;;16.40;99.90;;;;;;5008448;28;20192;-78
2022/08/09 00:51:57;;;;;;;6.60;3.90;;;16.40;99.90;;;;;;4992544;28;20191;-78
2022/08/09 00:54:41;;;;;;;9.50;4.27;;;16.30;99.90;;;;;;5009169;28;20227;-78
2022/08/09 00:57:27;;;;;;;5.93;3.80;;;16.30;99.90;;;;;;5009465;28;20192;-76
2022/08/09 01:00:12;;;;;;;9.77;3.87;;;16.30;99.90;;;;;;4994388;28;20262;-77
2022/08/09 01:03:06;;;;;;;6.90;3.73;;;16.20;99.90;;;;;;4994580;28;20184;-76
2022/08/09 01:06:11;;;;;;;5.47;3.70;;;16.20;99.90;;;;;;5008737;28;20192;-78
2022/08/09 01:09:25;;;;;;;5.50;4.13;;;16.20;99.90;;;;;;4987995;28;20559;-77
2022/08/09 01:12:42;;;;;;;5.43;4.40;;;16.20;99.90;;;;;;4991334;28;20504;-77
2022/08/09 01:15:32;;;;;;;5.47;3.90;;;16.20;99.90;;;;;;4985818;28;20227;-76
2022/08/09 01:18:22;;;;;;;5.90;3.70;;;16.20;99.90;;;;;;4988669;28;20244;-77
2022/08/09 01:21:17;;;;;;;4.97;3.97;;;16.10;99.90;;;;;;4988868;28;20308;-78
2022/08/09 01:24:17;;;;;;;5.67;3.30;;;16.10;99.90;;;;;;4995108;28;20204;-76
2022/08/09 01:27:07;;;;;;;5.70;3.30;;;16.10;99.90;;;;;;5007570;28;20204;-78
2022/08/09 01:29:57;;;;;;;8.40;3.77;;;16.10;99.90;;;;;;4995329;28;20275;-77
2022/08/09 01:32:44;;;;;;;6.60;3.50;;;16.10;99.90;;;;;;4993433;28;20192;-76
2022/08/09 01:35:34;;;;;;;5.43;3.63;;;16.20;99.90;;;;;;4996084;28;20212;-77
2022/08/09 01:38:23;;;;;;;9.00;3.17;;;16.10;99.90;;;;;;4994614;28;20191;-76
2022/08/09 01:41:28;;;;;;;9.20;3.97;;;16.10;99.90;;;;;;4996829;28;20288;-77
2022/08/09 01:44:15;;;;;;;3.67;3.33;;;16.10;99.90;;;;;;4997283;28;20616;-75
2022/08/09 01:47:01;;;;;;;6.33;3.63;;;16.10;99.90;;;;;;5006372;28;20223;-76
2022/08/09 01:49:47;;;;;;;5.43;3.73;;;16.00;99.90;;;;;;4991346;28;20308;-77
2022/08/09 01:52:33;;;;;;;6.43;3.70;;;16.00;99.90;;;;;;4995754;28;20254;-76
2022/08/09 01:55:18;;;;;;;4.63;3.30;;;16.00;99.90;;;;;;5006990;28;20211;-76
2022/08/09 01:58:03;;;;;;;5.37;3.40;;;15.90;99.90;;;;;;4993489;28;20243;-77
2022/08/09 02:00:48;;;;;;;4.67;3.23;;;15.90;99.90;;;;;;4987664;28;20243;-77
2022/08/09 02:03:34;;;;;;;5.50;3.40;;;15.90;99.90;;;;;;4993922;28;20299;-76
2022/08/09 02:07:07;;;;;;;3.37;3.07;;;15.90;99.90;;;;;;5003735;28;20191;-78
2022/08/09 02:09:29;;;;;;;5.67;3.53;;;15.80;99.90;;;;;;5002089;28;20223;-75
2022/08/09 02:12:17;;;;;;;8.67;3.80;;;15.80;99.90;;;;;;4992029;28;20199;-77
2022/08/09 02:15:04;;;;;;;5.30;3.20;;;15.80;99.90;;;;;;4990210;28;20260;-77
2022/08/09 02:17:52;;;;;;;4.30;3.90;;;15.80;99.90;;;;;;4984019;28;20712;-77
2022/08/09 02:20:42;;;;;;;7.27;3.87;;;15.80;99.90;;;;;;4993238;28;20224;-77
2022/08/09 02:23:36;;;;;;;6.38;4.30;;;15.70;99.90;;;;;;4993841;28;20434;-77
2022/08/09 02:26:21;;;;;;;3.93;3.53;;;15.70;99.90;;;;;;4992173;28;20369;-76
2022/08/09 02:29:17;;;;;;;3.87;3.57;;;15.70;99.90;;;;;;5009369;28;20196;-77
2022/08/09 02:32:03;;;;;;;4.90;3.67;;;15.70;99.90;;;;;;4990127;28;20196;-77
2022/08/09 02:34:55;;;;;;;5.88;4.35;;;15.70;99.90;;;;;;5008104;28;20903;-76
2022/08/09 02:37:41;;;;;;;4.60;3.60;;;15.70;99.90;;;;;;4989116;28;20687;-76
2022/08/09 02:40:27;;;;;;;4.93;4.13;;;15.70;99.90;;;;;;5003221;28;20283;-76
2022/08/09 02:43:12;;;;;;;4.10;3.67;;;15.70;99.90;;;;;;4996795;28;20180;-77
2022/08/09 02:46:00;;;;;;;4.83;3.77;;;15.60;99.90;;;;;;4993084;28;20291;-77
2022/08/09 02:48:45;;;;;;;5.70;3.67;;;15.60;99.90;;;;;;5007295;28;20199;-76
2022/08/09 02:51:34;;;;;;;3.80;3.40;;;15.60;99.90;;;;;;4984886;28;20648;-77
2022/08/09 02:54:20;;;;;;;5.87;4.83;;;15.50;99.90;;;;;;4985482;28;20424;-76
2022/08/09 02:57:08;;;;;;;7.15;4.18;;;15.50;99.90;;;;;;5000969;28;20416;-76
2022/08/09 02:59:53;;;;;;;6.78;4.38;;;15.50;99.90;;;;;;5004163;28;20423;-76
2022/08/09 03:02:41;;;;;;;6.50;3.90;;;15.60;99.90;;;;;;4994147;28;20220;-77
2022/08/09 03:05:26;;;;;;;5.38;4.38;;;15.50;99.90;;;;;;4991371;28;20480;-77
2022/08/09 03:08:12;;;;;;;5.30;3.77;;;15.50;99.90;;;;;;4986437;28;20738;-76
2022/08/09 03:10:58;;;;;;;4.10;3.30;;;15.50;99.90;;;;;;4989352;28;20220;-76
2022/08/09 03:13:44;;;;;;;5.53;3.90;;;15.50;99.90;;;;;;4993040;28;20199;-76
2022/08/09 03:16:30;;;;;;;5.13;3.60;;;15.40;99.90;;;;;;4999631;28;20259;-76
2022/08/09 03:19:17;;;;;;;4.47;3.77;;;15.40;99.90;;;;;;4993581;28;20331;-76
2022/08/09 03:22:01;;;;;;;;;;;15.40;99.90;;;;;;4988962;28;20057;-77
2022/08/09 03:24:45;;;;;;;;;;;15.40;99.90;;;;;;4991441;28;20012;-77
2022/08/09 03:27:30;;;;;;;;;;;15.30;99.90;;;;;;4991572;28;20289;-77
2022/08/09 03:30:14;;;;;;;;;;;15.30;99.90;;;;;;5004194;28;19916;-78
2022/08/09 03:33:00;;;;;;;6.05;5.20;;;15.30;99.90;;;;;;4992504;28;20416;-77
2022/08/09 03:35:54;;;;;;;7.07;5.35;;;15.30;99.90;;;;;;4986882;28;20425;-78
2022/08/09 03:38:40;;;;;;;7.05;5.32;;;15.30;99.90;;;;;;4989315;28;20424;-78
2022/08/09 03:41:25;;;;;;;6.13;4.90;;;15.30;99.90;;;;;;4984785;28;20427;-77
2022/08/09 03:44:09;;;;;;;7.68;5.53;;;15.30;99.90;;;;;;4988960;28;20443;-77
2022/08/09 03:46:53;;;;;;;5.93;5.22;;;15.30;99.90;;;;;;4989801;28;20415;-77
2022/08/09 03:49:38;;;;;;;7.22;5.10;;;15.30;99.90;;;;;;4992450;28;20400;-77
2022/08/09 03:52:24;;;;;;;10.30;5.43;;;15.30;99.90;;;;;;5002617;28;20490;-76
2022/08/09 03:55:10;;;;;;;8.30;4.82;;;15.30;99.90;;;;;;5005910;28;20403;-78
2022/08/09 03:57:56;;;;;;;6.60;4.88;;;15.30;99.90;;;;;;4989683;28;20411;-77
2022/08/09 04:00:42;;;;;;;5.13;4.30;;;15.30;99.90;;;;;;5000063;28;20219;-78
2022/08/09 04:03:28;;;;;;;4.33;3.80;;;15.20;99.90;;;;;;4981046;28;20177;-76
2022/08/09 04:06:12;;;;;;;6.90;3.67;;;15.10;99.90;;;;;;4989162;28;20195;-77
2022/08/09 04:08:56;;;;;;;10.10;4.97;;;15.10;99.90;;;;;;5000229;28;20188;-77
2022/08/09 04:12:06;;;;;;;4.27;3.87;;;15.10;99.90;;;;;;4989539;28;20232;-78
2022/08/09 04:14:50;;;;;;;7.60;4.00;;;15.10;99.90;;;;;;4984746;28;20684;-77
2022/08/09 04:17:34;;;;;;;7.47;4.93;;;15.00;99.90;;;;;;5003514;28;20512;-77
2022/08/09 04:20:18;;;;;;;6.90;3.80;;;15.00;99.90;;;;;;4982447;28;20258;-76
2022/08/09 04:23:02;;;;;;;4.20;3.50;;;15.00;99.90;;;;;;4988528;28;20196;-77
2022/08/09 04:25:46;;;;;;;6.77;4.80;;;15.00;99.90;;;;;;4986089;28;20429;-79
2022/08/09 04:28:30;;;;;;;7.23;4.33;;;15.10;99.90;;;;;;5006010;28;20199;-79
2022/08/09 04:31:14;;;;;;;7.95;5.05;;;15.10;99.90;;;;;;4985754;28;20413;-77
2022/08/09 04:33:58;;;;;;;5.23;4.20;;;15.10;99.90;;;;;;4990916;28;20582;-76
2022/08/09 04:36:42;;;;;;;5.47;4.72;;;15.10;99.90;;;;;;5000048;28;20523;-78
2022/08/09 04:39:27;;;;;;;6.90;4.30;;;15.10;99.90;;;;;;4988565;28;20223;-78
2022/08/09 04:42:11;;;;;;;5.43;4.00;;;15.10;99.90;;;;;;4990776;28;20251;-78
2022/08/09 04:45:00;;;;;;;5.60;5.00;;;15.10;99.90;;;;;;4985540;28;20488;-77
2022/08/09 04:47:44;;;;;;;7.87;4.10;;;15.10;99.90;;;;;;5003158;28;20560;-77
2022/08/09 04:50:28;;;;;;;6.97;3.47;;;15.10;99.90;;;;;;5006055;28;20207;-78
2022/08/09 04:53:13;;;;;;;7.97;3.83;;;15.00;99.90;;;;;;4987886;28;20235;-78
2022/08/09 04:55:58;;;;;;;7.30;4.82;;;15.00;99.90;;;;;;4985728;28;20427;-77
2022/08/09 04:58:42;;;;;;;13.17;4.13;;;15.10;99.90;;;;;;4991085;28;20256;-77
2022/08/09 05:01:26;;;;;;;5.50;4.10;;;15.00;99.90;;;;;;5004043;28;20759;-77
2022/08/09 05:04:10;;;;;;;6.30;3.90;;;15.00;99.90;;;;;;4991202;28;20269;-76
2022/08/09 05:06:54;;;;;;;10.93;4.95;;;15.00;99.90;;;;;;4983808;28;20466;-77
2022/08/09 05:09:38;;;;;;;5.23;4.37;;;15.10;99.90;;;;;;4989055;28;20207;-77
2022/08/09 05:12:25;;;;;;;6.97;3.73;;;15.10;99.90;;;;;;4985179;28;20200;-78
2022/08/09 05:15:10;;;;;;;5.40;3.77;;;15.10;99.90;;;;;;4997166;28;20235;-79
2022/08/09 05:17:54;;;;;;;4.47;3.57;;;15.20;99.90;;;;;;4989835;28;20177;-78
2022/08/09 05:20:38;;;;;;;8.45;4.90;;;15.20;99.90;;;;;;4988440;28;20521;-80
2022/08/09 05:23:23;;;;;;;4.60;3.77;;;15.20;99.90;;;;;;4983495;28;20215;-78
2022/08/09 05:26:07;;;;;;;6.47;4.00;;;15.30;99.90;;;;;;5001964;28;20195;-77
2022/08/09 05:28:51;;;;;;;11.40;4.40;;;15.30;99.90;;;;;;4991779;28;20203;-78
2022/08/09 05:31:36;;;;;;;5.53;4.13;;;15.30;99.90;;;;;;4994864;28;20220;-76
2022/08/09 05:34:20;;;;;;;5.63;3.90;;;15.40;99.90;;;;;;5006326;28;20232;-76
2022/08/09 05:37:05;;;;;;;6.53;3.77;;;15.40;99.90;;;;;;4993790;28;20211;-78
2022/08/09 05:39:49;;;;;;;8.70;4.00;;;15.40;99.90;;;;;;4989835;28;20747;-79
2022/08/09 05:42:33;;;;;;;5.47;3.83;;;15.50;99.90;;;;;;4996506;28;20195;-78
2022/08/09 05:45:18;;;;;;;8.63;3.77;;;15.60;99.90;;;;;;4992873;28;20331;-78
2022/08/09 05:48:02;;;;;;;5.30;3.50;;;15.60;99.90;;;;;;4992797;28;20204;-79
2022/08/09 05:50:47;;;;;;;5.03;3.50;;;15.60;99.90;;;;;;4988571;28;20211;-78
2022/08/09 05:53:31;;;;;;;6.57;3.70;;;15.70;99.90;;;;;;4990946;28;20243;-78
2022/08/09 05:56:15;;;;;;;5.77;3.67;;;15.70;99.90;;;;;;4994729;28;20212;-76
2022/08/09 05:59:00;;;;;;;4.47;3.73;;;15.70;99.90;;;;;;5007734;28;20200;-78
2022/08/09 06:01:44;;;;;;;6.73;3.80;;;15.70;99.90;;;;;;4992043;28;20184;-78
2022/08/09 06:04:28;;;;;;;5.97;3.90;;;15.80;99.90;;;;;;5006780;28;20280;-78
2022/08/09 06:07:12;;;;;;;7.30;4.07;;;15.80;99.90;;;;;;4993097;28;20196;-78
2022/08/09 06:09:56;;;;;;;7.55;4.60;;;15.90;99.90;;;;;;5007558;28;20788;-79
2022/08/09 06:12:41;;;;;;;5.07;3.60;;;16.00;99.90;;;;;;4997042;28;20192;-78
2022/08/09 06:15:26;;;;;;;7.47;3.60;;;16.10;99.90;;;;;;5003751;28;20727;-78
2022/08/09 06:18:10;;;;;;;6.33;3.80;;;16.10;99.90;;;;;;4989453;28;20199;-80
2022/08/09 06:20:55;;;;;;;6.90;3.97;;;16.20;99.90;;;;;;4990774;28;20255;-78
2022/08/09 06:23:40;;;;;;;6.17;3.17;;;16.30;99.90;;;;;;4996693;28;20297;-77
2022/08/09 06:26:24;;;;;;;5.40;3.80;;;16.40;99.90;;;;;;4995557;28;20188;-76
2022/08/09 06:29:09;;;;;;;5.27;3.37;;;16.50;99.90;;;;;;4993109;28;20204;-78
2022/08/09 06:31:53;;;;;;;6.35;4.00;;;16.50;99.90;;;;;;4991699;28;20407;-78
2022/08/09 06:34:38;;;;;;;5.77;3.80;;;16.60;99.90;;;;;;5008193;28;20207;-78
2022/08/09 06:37:22;;;;;;;3.77;3.00;;;16.70;99.90;;;;;;4993035;28;20236;-79
2022/08/09 06:40:06;;;;;;;3.70;3.00;;;16.80;99.90;;;;;;5005976;28;20219;-78
2022/08/09 06:42:50;;;;;;;4.60;3.10;;;16.90;99.90;;;;;;4992533;28;20633;-77
2022/08/09 06:45:34;;;;;;;5.73;2.90;;;16.90;99.90;;;;;;5006702;28;20234;-77
2022/08/09 06:48:18;;;;;;;4.87;2.90;;;16.90;99.90;;;;;;4994034;28;20227;-79
2022/08/09 06:51:04;;;;;;;3.60;2.43;;;16.90;99.90;;;;;;4993894;28;20228;-78
2022/08/09 06:53:48;;;;;;;6.40;2.43;;;17.00;99.90;;;;;;4991837;28;20208;-78
2022/08/09 06:56:32;;;;;;;3.83;2.10;;;17.00;99.90;;;;;;5007083;28;20336;-78
2022/08/09 06:59:17;;;;;;;3.73;2.10;;;17.10;99.90;;;;;;5007247;28;20219;-77
2022/08/09 07:02:01;;;;;;;2.80;1.60;;;17.10;99.90;;;;;;5001903;28;20199;-78
2022/08/09 07:04:45;;;;;;;2.80;1.77;;;17.20;99.90;;;;;;5000761;28;20215;-79
2022/08/09 07:07:29;;;;;;;2.87;1.90;;;17.30;99.90;;;;;;4991156;28;20188;-78
2022/08/09 07:10:14;;;;;;;3.87;1.40;;;17.30;99.90;;;;;;4983259;28;20204;-78
2022/08/09 07:12:59;;;;;;;2.97;1.40;;;17.40;99.90;;;;;;4992016;28;20266;-78
2022/08/09 07:15:43;;;;;;;2.50;1.47;;;17.50;99.90;;;;;;4987627;28;20334;-78
2022/08/09 07:18:27;;;;;;;1.63;1.40;;;17.50;99.90;;;;;;4988453;28;20231;-77
2022/08/09 07:21:11;;;;;;;2.77;1.73;;;17.60;99.90;;;;;;4991015;28;20223;-77
2022/08/09 07:23:55;;;;;;;2.70;1.70;;;17.70;99.90;;;;;;4995257;28;20273;-79
2022/08/09 07:26:39;;;;;;;1.50;1.40;;;17.70;99.90;;;;;;5003825;28;20192;-77
2022/08/09 07:29:24;;;;;;;3.30;1.40;;;17.80;99.90;;;;;;4992032;28;20607;-78
2022/08/09 07:32:08;;;;;;;3.17;1.30;;;17.80;99.90;;;;;;4990684;28;20200;-77
2022/08/09 07:34:52;;;;;;;3.90;1.60;;;18.00;99.90;;;;;;5002685;28;20192;-78
2022/08/09 07:37:38;;;;;;;4.43;1.27;;;18.00;99.90;;;;;;4994428;28;20208;-78
2022/08/09 07:40:22;;;;;;;2.70;1.20;;;18.00;99.90;;;;;;5003188;28;20239;-78
2022/08/09 07:43:06;;;;;;;1.63;1.40;;;18.10;99.90;;;;;;4987016;28;20231;-78
2022/08/09 07:45:50;;;;;;;2.80;1.57;;;18.20;99.90;;;;;;4988089;28;20343;-78
2022/08/09 07:48:34;;;;;;;3.30;1.70;;;18.30;99.90;;;;;;4989361;28;20212;-78
2022/08/09 07:51:18;;;;;;;3.70;1.33;;;18.40;99.90;;;;;;5000043;28;20232;-78
2022/08/09 07:54:02;;;;;;;3.67;1.37;;;18.50;99.90;;;;;;4993959;28;20191;-78
2022/08/09 07:56:46;;;;;;;3.60;1.30;;;18.50;99.90;;;;;;4989665;28;20252;-81
2022/08/09 07:59:30;;;;;;;1.83;1.27;;;18.60;99.90;;;;;;4983825;28;20267;-77
2022/08/09 08:02:14;;;;;;;1.93;1.20;;;18.70;99.90;;;;;;5003738;28;20671;-77
2022/08/09 08:04:58;;;;;;;1.77;1.37;;;18.70;99.90;;;;;;4987787;28;20218;-79
2022/08/09 08:07:42;;;;;;;3.23;1.30;;;18.80;99.90;;;;;;4993167;28;20188;-79
2022/08/09 08:10:26;;;;;;;1.48;1.38;;;18.80;99.90;;;;;;4981896;28;20215;-77
2022/08/09 08:13:10;;;;;;;7.03;1.63;;;18.80;99.90;;;;;;4989335;28;20189;-78
2022/08/09 08:15:54;;;;;;;3.00;1.23;;;18.80;99.90;;;;;;4989507;28;20328;-77
2022/08/09 08:18:38;;;;;;;3.03;1.33;;;18.90;99.90;;;;;;4991088;28;20196;-78
2022/08/09 08:21:23;;;;;;;2.47;1.10;;;19.00;99.90;;;;;;4990753;28;20243;-79
2022/08/09 08:24:08;;;;;;;2.38;1.23;;;19.00;99.90;;;;;;4988752;28;20542;-77
2022/08/09 08:26:52;;;;;;;3.13;1.58;;;19.20;99.90;;;;;;4990979;28;20184;-77
2022/08/09 08:29:36;;;;;;;2.72;1.52;;;19.20;99.90;;;;;;4994566;28;20199;-77
2022/08/09 08:32:21;;;;;;;3.40;1.35;;;19.30;99.90;;;;;;5006404;28;20202;-78
2022/08/09 08:35:05;;;;;;;4.17;1.40;;;19.40;99.90;;;;;;4985929;28;20211;-79
2022/08/09 08:37:50;;;;;;;3.08;1.23;;;19.30;99.90;;;;;;4989205;28;20212;-79
2022/08/09 08:40:34;;;;;;;3.38;1.30;;;19.40;99.90;;;;;;4994598;28;20220;-78
2022/08/09 08:43:19;;;;;;;2.85;1.40;;;19.40;99.90;;;;;;4989006;28;20296;-79
2022/08/09 08:46:06;;;;;;;3.63;1.70;;;19.50;99.90;;;;;;4992765;28;20601;-79
2022/08/09 08:48:50;;;;;;;1.95;1.30;;;19.60;99.90;;;;;;4990921;28;20180;-79
2022/08/09 08:51:37;;;;;;;3.35;1.45;;;19.70;99.90;;;;;;5010790;28;20254;-78
2022/08/09 08:54:21;;;;;;;3.40;1.80;;;19.80;99.90;;;;;;4989730;28;20242;-79
2022/08/09 08:57:07;;;;;;;2.10;1.45;;;19.80;99.90;;;;;;5005929;28;20296;-79
2022/08/09 08:59:53;;;;;;;2.30;1.30;;;19.90;99.90;;;;;;5007503;28;20212;-79
2022/08/09 09:02:38;;;;;;;3.30;1.50;;;19.90;99.90;;;;;;5002890;28;20558;-79
2022/08/09 09:05:23;;;;;;;4.65;1.50;;;20.00;99.90;;;;;;5010831;28;20185;-78
2022/08/09 09:08:12;;;;;;;1.33;1.20;;;20.00;99.90;;;;;;4993647;28;20188;-78
2022/08/09 09:10:56;;;;;;;2.30;1.63;;;20.00;99.90;;;;;;5010138;28;20258;-79
2022/08/09 09:13:43;;;;;;;1.55;1.20;;;20.10;99.90;;;;;;4988427;28;20193;-79
2022/08/09 09:16:32;;;;;;;2.78;1.08;;;20.10;99.90;;;;;;4995329;28;20212;-79
2022/08/09 09:19:16;;;;;;;2.05;1.20;;;20.10;99.90;;;;;;5001344;28;20180;-81
2022/08/09 09:22:04;;;;;;;4.07;1.27;;;20.30;99.90;;;;;;5006565;28;20199;-79
2022/08/09 09:24:51;;;;;;;2.60;1.17;;;20.30;99.90;;;;;;5010320;28;20176;-78
2022/08/09 09:27:36;;;;;;;1.95;1.20;;;20.30;99.90;;;;;;4994209;28;20216;-79
2022/08/09 09:30:21;;;;;;;3.08;1.20;;;20.40;99.90;;;;;;5009254;28;20211;-80
2022/08/09 09:33:10;;;;;;;3.40;1.48;;;20.40;99.90;;;;;;5009251;28;20194;-77
2022/08/09 09:35:57;;;;;;;2.95;1.30;;;20.50;99.90;;;;;;5009022;28;20203;-78
2022/08/09 09:38:55;;;;;;;4.63;1.48;;;20.60;99.90;;;;;;5003700;28;20195;-80
2022/08/09 09:41:39;;;;;;;2.42;1.30;;;20.60;99.90;;;;;;4996065;28;20255;-79
2022/08/09 09:44:33;;;;;;;4.40;1.60;;;20.70;99.90;;;;;;5007733;28;20272;-79
2022/08/09 09:47:17;;;;;;;3.10;1.55;;;20.70;99.90;;;;;;4992493;28;20192;-81
2022/08/09 09:50:02;;;;;;;1.52;1.30;;;20.80;99.90;;;;;;4998146;28;20267;-78
2022/08/09 09:52:53;;;;;;;1.65;1.42;;;20.80;99.90;;;;;;4994004;28;20252;-79
2022/08/09 09:55:56;;;;;;;9.18;1.80;;;20.80;99.90;;;;;;4993170;28;20219;-78
2022/08/09 09:58:47;;;;;;;2.90;1.50;;;20.80;99.90;;;;;;4991839;28;20234;-80
2022/08/09 10:01:31;;;;;;;2.70;1.60;;;20.90;99.90;;;;;;4987871;28;20219;-78
2022/08/09 10:04:17;;;;;;;3.90;1.60;;;20.90;99.90;;;;;;4994176;28;20255;-79
2022/08/09 10:07:02;;;;;;;3.95;1.90;;;21.00;99.90;;;;;;5005691;28;20199;-78
2022/08/09 10:09:50;;;;;;;4.13;1.90;;;21.10;99.90;;;;;;4992579;28;20211;-80
2022/08/09 10:12:36;;;;;;;3.45;1.52;;;21.10;99.90;;;;;;5007085;28;20204;-78
2022/08/09 10:15:21;;;;;;;3.13;1.55;;;21.20;99.90;;;;;;4999515;28;20243;-79
2022/08/09 10:18:10;;;;;;;5.10;1.70;;;21.20;99.90;;;;;;4996028;28;20244;-78
2022/08/09 10:21:05;;;;;;;4.88;1.52;;;21.20;99.90;;;;;;4990732;28;20706;-79
2022/08/09 10:23:50;;;;;;;6.68;1.45;;;21.20;99.90;;;;;;4987219;28;20236;-80
2022/08/09 10:26:34;;;;;;;2.30;1.38;;;21.20;99.90;;;;;;5005491;28;20195;-79
2022/08/09 10:29:19;;;;;;;6.45;1.83;;;21.30;99.90;;;;;;4992204;28;20267;-80
2022/08/09 10:32:03;;;;;;;4.60;2.00;;;21.30;99.90;;;;;;4999944;28;20203;-77
2022/08/09 10:34:47;;;;;;;3.50;1.40;;;21.30;99.90;;;;;;4994938;28;20231;-79
2022/08/09 10:37:32;;;;;;;3.20;1.70;;;21.40;99.90;;;;;;4997209;28;20235;-78
2022/08/09 10:40:16;;;;;;;3.47;1.27;;;21.50;99.90;;;;;;4991391;28;20247;-79
2022/08/09 10:43:00;;;;;;;5.05;1.30;;;21.60;99.90;;;;;;5005120;28;20332;-77
2022/08/09 10:45:44;;;;;;;1.30;1.02;;;21.60;99.90;;;;;;4992241;28;20551;-80
2022/08/09 10:48:40;;;;;;;6.72;1.15;;;21.60;99.90;;;;;;4994541;28;20200;-79
2022/08/09 10:51:54;;;;;;;3.63;1.40;;;21.70;99.90;;;;;;5005786;28;20295;-77
2022/08/09 10:54:38;;;;;;;2.42;1.10;;;21.80;99.90;;;;;;4996526;28;20236;-79
2022/08/09 10:57:34;;;;;;;5.22;1.33;;;21.90;99.90;;;;;;5003807;28;20235;-77
2022/08/09 11:00:27;;;;;;;3.38;1.30;;;21.90;99.90;;;;;;4994715;28;20211;-79
2022/08/09 11:03:25;;;;;;;3.33;1.35;;;21.90;99.90;;;;;;4992683;28;20312;-78
2022/08/09 11:06:19;;;;;;;2.38;1.25;;;21.90;99.90;;;;;;5005637;28;20216;-78
2022/08/09 11:09:04;;;;;;;4.10;1.45;;;21.90;99.90;;;;;;4989153;28;20976;-79
2022/08/09 11:11:59;;;;;;;1.10;1.00;;;21.90;99.90;;;;;;4990538;28;20265;-79
2022/08/09 11:14:53;;;;;;;2.95;1.02;;;22.00;99.90;;;;;;4992401;28;20741;-79
2022/08/09 11:17:37;;;;;;;2.65;0.82;;;22.10;99.90;;;;;;4997679;28;20191;-79
2022/08/09 11:20:40;;;;;;;1.20;1.00;;;22.20;99.90;;;;;;4991876;28;20215;-79
2022/08/09 11:23:24;;;;;;;1.70;1.00;;;22.20;99.90;;;;;;4989983;28;20238;-80
2022/08/09 11:26:49;;;;;;;1.42;1.00;;;22.20;99.90;;;;;;4993041;28;20323;-78
2022/08/09 11:29:54;;;;;;;4.72;1.30;;;22.10;99.90;;;;;;5003207;28;20279;-79
2022/08/09 11:32:46;;;;;;;2.80;1.20;;;22.10;99.90;;;;;;4995757;28;20776;-80
2022/08/09 11:35:38;;;;;;;3.28;1.00;;;22.10;99.90;;;;;;4988452;28;22117;-79
2022/08/09 11:38:26;;;;;;;1.70;0.90;;;22.20;99.90;;;;;;4993365;28;20191;-82
2022/08/09 11:41:13;;;;;;;2.97;1.00;;;22.30;99.90;;;;;;4996392;28;20266;-81
2022/08/09 11:43:57;;;;;;;2.15;0.77;;;22.20;99.90;;;;;;4995911;28;20211;-78
2022/08/09 11:46:51;;;;;;;3.70;1.27;;;22.30;99.90;;;;;;4995049;28;20228;-80
2022/08/09 11:50:00;;;;;;;1.58;1.00;;;22.40;99.90;;;;;;4991627;28;20825;-79
2022/08/09 11:53:00;;;;;;;2.17;0.80;;;22.60;99.90;;;;;;4994600;28;20654;-81
2022/08/09 11:55:44;;;;;;;1.13;0.80;;;22.60;99.90;;;;;;4998572;28;20279;-79
2022/08/09 11:58:30;;;;;;;3.65;1.13;;;22.60;99.90;;;;;;4995452;28;20250;-82
2022/08/09 12:01:17;;;;;;;4.85;1.17;;;22.60;99.90;;;;;;4999954;28;20258;-81
2022/08/09 12:04:13;;;;;;;2.97;0.93;;;22.70;99.90;;;;;;4995720;28;20207;-81
2022/08/09 12:06:57;;;;;;;2.25;1.13;;;22.70;99.90;;;;;;5000161;28;20388;-79
2022/08/09 12:09:44;;;;;;;1.67;1.00;;;22.70;99.90;;;;;;4997145;28;20231;-81
2022/08/09 12:12:42;;;;;;;5.95;1.13;;;22.80;99.90;;;;;;4995564;28;20200;-80
2022/08/09 12:15:27;;;;;;;1.35;0.85;;;22.90;99.90;;;;;;4995014;28;20622;-83
2022/08/09 12:18:19;;;;;;;4.55;1.08;;;22.90;99.90;;;;;;4991828;28;20269;-80
2022/08/09 12:21:06;;;;;;;2.00;0.90;;;22.90;99.90;;;;;;4993332;28;20231;-81
2022/08/09 12:23:52;;;;;;;3.50;1.00;;;23.00;99.90;;;;;;4998496;28;20187;-81
2022/08/09 12:26:50;;;;;;;1.77;0.95;;;23.10;99.90;;;;;;4998309;28;20231;-80
2022/08/09 12:29:35;;;;;;;1.88;0.95;;;23.10;99.90;;;;;;4997361;28;20549;-82
2022/08/09 12:32:25;;;;;;;2.05;0.90;;;23.10;99.90;;;;;;5003051;28;20340;-83
2022/08/09 12:35:09;;;;;;;3.00;1.00;;;23.20;99.90;;;;;;4993926;28;20207;-80
2022/08/09 12:37:54;;;;;;;3.70;1.17;;;23.20;99.90;;;;;;5000528;28;20187;-80
2022/08/09 12:40:44;;;;;;;1.70;0.90;;;23.20;99.90;;;;;;5004908;28;20211;-81
2022/08/09 12:43:29;;;;;;;3.33;0.93;;;23.20;99.90;;;;;;5003856;28;20191;-82
2022/08/09 12:46:15;;;;;;;3.33;0.90;;;23.10;99.90;;;;;;5016700;28;20320;-82
2022/08/09 12:49:01;;;;;;;4.53;0.93;;;23.10;99.90;;;;;;5006101;28;20200;-81
2022/08/09 12:51:56;;;;;;;1.25;0.82;;;23.10;99.90;;;;;;5003573;28;20224;-84
2022/08/09 12:54:50;;;;;;;4.10;1.13;;;23.20;99.90;;;;;;4998806;28;20259;-82
2022/08/09 12:57:45;;;;;;;1.77;1.02;;;23.30;99.90;;;;;;5003368;28;20290;-80
2022/08/09 13:00:33;;;;;;;2.05;1.02;;;23.40;99.90;;;;;;5005288;28;20223;-81
2022/08/09 13:03:26;;;;;;;3.60;0.93;;;23.50;99.90;;;;;;5013879;28;20215;-82
2022/08/09 13:06:25;;;;;;;1.90;1.00;;;23.50;99.90;;;;;;5003384;28;20211;-81
2022/08/09 13:09:16;;;;;;;1.05;0.70;;;23.50;99.90;;;;;;5002686;28;20288;-80
2022/08/09 13:12:03;;;;;;;3.08;0.77;;;23.50;99.90;;;;;;4999174;28;20260;-81
2022/08/09 13:14:48;;;;;;;2.17;0.80;;;23.50;99.90;;;;;;5002207;28;20187;-82
2022/08/09 13:17:32;;;;;;;1.80;0.70;;;23.50;99.90;;;;;;5001112;28;20352;-80
2022/08/09 13:20:18;;;;;;;3.05;0.70;;;23.50;99.90;;;;;;5004530;28;20352;-82
2022/08/09 13:23:04;;;;;;;2.63;1.10;;;23.50;99.90;;;;;;5007661;28;20204;-83
2022/08/09 13:25:49;;;;;;;2.20;1.00;;;23.60;99.90;;;;;;5011888;28;20273;-81
2022/08/09 13:28:34;;;;;;;3.33;1.05;;;23.60;99.90;;;;;;5015696;28;20211;-81
2022/08/09 13:31:18;;;;;;;1.75;0.85;;;23.70;99.90;;;;;;4998885;28;20289;-81
2022/08/09 13:34:02;;;;;;;1.73;0.90;;;23.70;99.90;;;;;;4998523;28;20277;-80
2022/08/09 13:36:46;;;;;;;4.10;1.30;;;23.80;99.90;;;;;;5006535;28;20207;-84
2022/08/09 13:39:33;;;;;;;2.75;1.00;;;23.90;99.90;;;;;;5020349;28;20211;-82
2022/08/09 13:42:17;;;;;;;1.15;0.70;;;23.90;99.90;;;;;;5004675;28;20566;-82
2022/08/09 13:45:02;;;;;;;3.10;0.93;;;23.90;99.90;;;;;;5011868;28;20192;-81
2022/08/09 13:47:46;;;;;;;1.10;0.90;;;23.90;99.90;;;;;;5004770;28;20252;-82
2022/08/09 13:50:31;;;;;;;1.17;0.80;;;24.00;99.90;;;;;;5004805;28;20238;-80
2022/08/09 13:53:15;;;;;;;3.95;0.80;;;24.00;99.90;;;;;;5004547;28;20188;-80
2022/08/09 13:56:00;;;;;;;1.83;0.88;;;24.00;99.90;;;;;;5006042;28;20602;-81
2022/08/09 13:58:44;;;;;;;1.73;0.75;;;24.10;99.90;;;;;;5005104;28;20216;-81
2022/08/09 14:01:28;;;;;;;5.32;1.40;;;24.10;99.90;;;;;;5002899;28;20725;-80
2022/08/09 14:04:12;;;;;;;5.82;0.95;;;24.00;99.90;;;;;;5018985;28;20569;-82
2022/08/09 14:06:59;;;;;;;4.00;0.90;;;24.10;99.90;;;;;;5001678;28;20272;-82
2022/08/09 14:09:44;;;;;;;3.50;0.93;;;24.10;99.90;;;;;;5019283;28;20216;-80
2022/08/09 14:12:28;;;;;;;7.53;1.27;;;24.20;99.90;;;;;;5007067;28;20246;-84
2022/08/09 14:15:13;;;;;;;3.20;0.90;;;24.20;99.90;;;;;;5005078;28;20445;-82
2022/08/09 14:17:58;;;;;;;2.35;0.80;;;24.40;99.90;;;;;;5015952;28;20196;-80
2022/08/09 14:20:42;;;;;;;4.43;1.02;;;24.40;99.90;;;;;;5009296;28;20254;-81
2022/08/09 14:23:26;;;;;;;4.80;0.70;;;24.30;99.90;;;;;;5005735;28;20216;-81
2022/08/09 14:26:11;;;;;;;0.88;0.70;;;24.30;99.90;;;;;;5005518;28;20231;-84
2022/08/09 14:28:56;;;;;;;2.55;0.80;;;24.50;99.90;;;;;;5007468;28;20610;-81
2022/08/09 14:31:41;;;;;;;2.50;0.95;;;24.50;99.90;;;;;;5006703;28;20246;-83